createdAt,value
2023-02-28T00:03:00.099Z,1321.00
2023-02-28T00:04:00.092Z,1306.00
2023-02-28T00:05:00.103Z,1318.00
2023-02-28T00:06:00.115Z,1318.00
2023-02-28T00:07:00.082Z,1300.00
2023-02-28T00:08:00.064Z,1298.00
2023-02-28T00:09:00.137Z,1300.00
2023-02-28T00:10:00.103Z,1296.00
2023-02-28T00:11:00.120Z,1302.00
2023-02-28T00:12:00.106Z,1289.00
2023-02-28T00:13:00.113Z,1295.00
2023-02-28T00:14:00.133Z,1300.00
2023-02-28T00:15:00.120Z,1297.00
2023-02-28T00:16:00.119Z,1298.00
2023-02-28T00:17:00.135Z,1306.00
2023-02-28T00:18:00.152Z,1304.00
2023-02-28T00:19:00.121Z,1313.00
2023-02-28T00:20:00.102Z,1317.00
2023-02-28T00:21:00.101Z,1312.00
2023-02-28T00:22:00.109Z,1311.00
2023-02-28T00:23:00.097Z,1341.00
2023-02-28T00:24:00.120Z,1341.00
2023-02-28T00:25:00.047Z,1329.00
2023-02-28T00:26:00.063Z,1334.00
2023-02-28T00:27:00.100Z,1320.00
2023-02-28T00:28:00.137Z,1325.00
2023-02-28T00:29:00.123Z,1303.00
2023-02-28T00:30:00.148Z,1315.00
2023-02-28T00:31:00.241Z,1312.00
2023-02-28T00:32:00.277Z,1315.00
2023-02-28T00:33:00.237Z,1310.00
2023-02-28T00:34:00.237Z,1308.00
2023-02-28T00:35:00.320Z,1307.00
2023-02-28T00:36:00.380Z,1305.00
2023-02-28T00:37:00.401Z,1298.00
2023-02-28T00:38:00.460Z,1299.00
2023-02-28T00:39:00.472Z,1278.00
2023-02-28T00:40:00.560Z,1280.00
2023-02-28T00:41:00.595Z,1264.00
2023-02-28T00:42:00.700Z,1291.00
2023-02-28T00:43:00.735Z,1277.00
2023-02-28T00:44:00.789Z,1264.00
2023-02-28T00:45:00.895Z,1259.00
2023-02-28T00:46:00.938Z,1246.00
2023-02-28T00:47:00.983Z,1261.00
2023-02-28T00:48:01.031Z,1257.00
2023-02-28T00:49:01.084Z,1234.00
2023-02-28T00:50:01.155Z,1220.00
2023-02-28T00:51:01.231Z,1214.00
2023-02-28T00:52:01.221Z,1227.00
2023-02-28T00:53:01.289Z,1221.00
2023-02-28T00:54:01.341Z,1247.00
2023-02-28T00:55:01.372Z,1241.00
2023-02-28T00:56:01.422Z,1236.00
2023-02-28T00:57:01.505Z,1242.00
2023-02-28T00:58:01.515Z,1218.00
2023-02-28T00:59:01.574Z,1224.00
2023-02-28T01:00:01.611Z,1200.00
2023-02-28T01:01:01.693Z,1207.00
2023-02-28T01:02:01.743Z,1214.00
2023-02-28T01:03:01.767Z,1208.00
2023-02-28T01:04:01.834Z,1210.00
2023-02-28T01:05:01.830Z,1208.00
2023-02-28T01:06:01.903Z,1225.00
2023-02-28T01:07:01.944Z,1226.00
2023-02-28T01:08:01.975Z,1229.00
2023-02-28T01:09:02.032Z,1199.00
2023-02-28T01:10:02.067Z,1216.00
2023-02-28T01:11:02.108Z,1218.00
2023-02-28T01:12:02.149Z,1220.00
2023-02-28T01:13:02.178Z,1207.00
2023-02-28T01:14:02.214Z,1213.00
2023-02-28T01:15:02.297Z,1200.00
2023-02-28T01:16:02.319Z,1200.00
2023-02-28T01:17:02.315Z,1206.00
2023-02-28T01:18:02.380Z,1205.00
2023-02-28T01:19:02.410Z,1198.00
2023-02-28T01:20:02.527Z,1198.00
2023-02-28T01:21:02.491Z,1222.00
2023-02-28T01:22:02.532Z,1212.00
2023-02-28T04:10:04.885Z,1147.00
2023-02-28T04:11:04.841Z,1166.00
2023-02-28T04:12:04.874Z,1152.00
2023-02-28T04:13:04.846Z,1160.00
2023-02-28T04:14:04.855Z,1156.00
2023-02-28T04:15:04.863Z,1163.00
2023-02-28T04:16:04.945Z,1159.00
2023-02-28T04:17:04.858Z,1139.00
2023-02-28T04:18:04.878Z,1152.00
2023-02-28T04:19:04.846Z,1167.00
2023-02-28T04:20:04.871Z,1175.00
2023-02-28T04:21:04.855Z,1152.00
2023-02-28T04:22:04.893Z,1152.00
2023-02-28T04:23:04.852Z,1153.00
2023-02-28T04:24:04.885Z,1165.00
2023-02-28T04:27:04.876Z,1175.00
2023-02-28T04:28:04.892Z,1163.00
2023-02-28T04:38:04.921Z,1169.00
2023-02-28T04:44:04.964Z,1158.00
2023-02-28T04:50:05.004Z,1170.00
2023-02-28T04:51:05.030Z,1161.00
2023-02-28T04:52:05.074Z,1159.00
2023-02-28T04:53:05.048Z,1169.00
2023-02-28T04:54:05.100Z,1168.00
2023-02-28T04:55:05.128Z,1168.00
2023-02-28T04:56:05.105Z,1177.00
2023-02-28T04:57:05.118Z,1159.00
2023-02-28T04:58:05.142Z,1161.00
2023-02-28T04:59:05.172Z,1150.00
2023-02-28T05:00:05.179Z,1165.00
2023-02-28T05:01:05.175Z,1148.00
2023-02-28T05:02:05.294Z,1156.00
2023-02-28T05:03:05.208Z,1139.00
2023-02-28T05:04:05.229Z,1136.00
2023-02-28T05:05:05.319Z,1152.00
2023-02-28T05:06:05.281Z,1135.00
2023-02-28T05:07:05.305Z,1143.00
2023-02-28T05:08:05.306Z,1133.00
2023-02-28T05:09:05.329Z,1152.00
2023-02-28T05:10:06.515Z,1164.00
2023-02-28T05:11:05.402Z,1128.00
2023-02-28T05:12:05.391Z,1145.00
2023-02-28T05:13:05.394Z,1143.00
2023-02-28T05:14:05.456Z,1133.00
2023-02-28T05:15:05.456Z,1127.00
2023-02-28T05:16:05.546Z,1118.00
2023-02-28T05:17:05.500Z,1120.00
2023-02-28T05:18:05.519Z,1109.00
2023-02-28T05:19:05.616Z,1128.00
2023-02-28T05:20:16.491Z,1128.00
2023-02-28T05:21:06.522Z,1129.00
2023-02-28T05:22:05.537Z,1131.00
2023-02-28T05:23:05.540Z,1128.00
2023-02-28T05:24:05.538Z,1125.00
2023-02-28T05:25:05.484Z,1131.00
2023-02-28T05:26:05.489Z,1124.00
2023-02-28T05:27:05.471Z,1128.00
2023-02-28T05:28:05.464Z,1113.00
2023-02-28T05:29:05.514Z,1126.00
2023-02-28T05:30:05.486Z,1130.00
2023-02-28T05:31:05.538Z,1121.00
2023-02-28T05:32:05.551Z,1125.00
2023-02-28T05:33:05.441Z,1130.00
2023-02-28T05:34:05.459Z,1134.00
2023-02-28T05:35:05.529Z,1140.00
2023-02-28T05:36:05.513Z,1117.00
2023-02-28T05:37:05.425Z,1131.00
2023-02-28T05:38:05.436Z,1119.00
2023-02-28T05:39:05.439Z,1117.00
2023-02-28T05:40:05.405Z,1128.00
2023-02-28T05:41:05.419Z,1121.00
2023-02-28T05:42:05.481Z,1124.00
2023-02-28T05:43:05.493Z,1135.00
2023-02-28T05:44:05.512Z,1140.00
2023-02-28T05:45:05.527Z,1138.00
2023-02-28T05:46:05.604Z,1124.00
2023-02-28T05:47:05.603Z,1133.00
2023-02-28T05:48:05.611Z,1134.00
2023-02-28T05:49:05.736Z,1131.00
2023-02-28T05:50:05.667Z,1139.00
2023-02-28T05:51:05.645Z,1129.00
2023-02-28T05:52:05.697Z,1111.00
2023-02-28T05:53:05.714Z,1115.00
2023-02-28T05:54:05.710Z,1114.00
2023-02-28T05:55:05.754Z,1117.00
2023-02-28T05:56:05.735Z,1116.00
2023-02-28T05:57:12.600Z,1130.00
2023-02-28T05:58:06.754Z,1130.00
2023-02-28T05:59:05.753Z,1121.00
2023-02-28T06:00:05.757Z,1130.00
2023-02-28T06:02:05.772Z,1130.00
2023-02-28T06:03:05.783Z,1131.00
2023-02-28T06:04:05.763Z,1133.00
2023-02-28T06:05:05.735Z,1129.00
2023-02-28T06:06:05.720Z,1121.00
2023-02-28T06:07:05.733Z,1128.00
2023-02-28T06:08:05.791Z,1145.00
2023-02-28T06:09:05.704Z,1133.00
2023-02-28T06:10:05.684Z,1134.00
2023-02-28T06:11:05.678Z,1131.00
2023-02-28T06:12:05.683Z,1128.00
2023-02-28T06:13:05.681Z,1128.00
2023-02-28T06:14:05.700Z,1130.00
2023-02-28T06:15:05.663Z,1138.00
2023-02-28T06:16:05.623Z,1138.00
2023-02-28T06:17:05.631Z,1139.00
2023-02-28T06:18:05.643Z,1153.00
2023-02-28T06:19:05.607Z,1164.00
2023-02-28T06:20:05.645Z,1169.00
2023-02-28T06:21:05.802Z,1183.00
2023-02-28T06:22:05.618Z,1167.00
2023-02-28T06:23:05.574Z,1189.00
2023-02-28T06:24:05.610Z,1177.00
2023-02-28T06:25:05.618Z,1197.00
2023-02-28T06:26:05.592Z,1193.00
2023-02-28T06:27:05.673Z,1198.00
2023-02-28T06:28:05.570Z,1191.00
2023-02-28T06:29:05.717Z,1193.00
2023-02-28T06:30:05.540Z,1211.00
2023-02-28T06:31:05.583Z,1207.00
2023-02-28T06:32:05.563Z,1233.00
2023-02-28T06:33:05.543Z,1234.00
2023-02-28T06:34:05.512Z,1248.00
2023-02-28T06:35:05.526Z,1331.00
2023-02-28T06:36:05.496Z,1452.00
2023-02-28T06:37:05.512Z,1412.00
2023-02-28T06:38:05.487Z,1427.00
2023-02-28T06:39:05.474Z,1470.00
2023-02-28T06:40:06.118Z,1477.00
2023-02-28T06:41:05.504Z,1478.00
2023-02-28T06:42:05.484Z,1428.00
2023-02-28T06:43:05.469Z,1427.00
2023-02-28T06:44:05.586Z,1440.00
2023-02-28T06:45:05.480Z,1432.00
2023-02-28T06:46:05.505Z,1618.00
2023-02-28T06:47:05.495Z,1513.00
2023-02-28T06:48:05.512Z,1576.00
2023-02-28T06:51:05.708Z,1707.00
2023-02-28T06:53:05.771Z,1814.00
2023-02-28T06:54:06.795Z,1816.00
2023-02-28T06:55:05.898Z,1826.00
2023-02-28T06:56:05.775Z,1843.00
2023-02-28T06:57:05.778Z,1857.00
2023-02-28T06:58:05.740Z,1918.00
2023-02-28T06:59:05.760Z,2024.00
2023-02-28T07:00:05.727Z,2006.00
2023-02-28T07:01:05.769Z,1952.00
2023-02-28T07:02:05.724Z,1958.00
2023-02-28T07:03:05.717Z,1880.00
2023-02-28T07:04:05.712Z,1830.00
2023-02-28T07:05:05.692Z,1721.00
2023-02-28T07:06:05.691Z,1866.00
2023-02-28T07:07:05.706Z,1877.00
2023-02-28T07:08:05.672Z,1896.00
2023-02-28T07:09:05.644Z,1927.00
2023-02-28T07:10:05.663Z,1848.00
2023-02-28T07:11:05.661Z,1848.00
2023-02-28T07:12:05.664Z,1873.00
2023-02-28T07:13:05.676Z,1871.00
2023-02-28T07:14:05.676Z,1870.00
2023-02-28T07:15:05.654Z,1890.00
2023-02-28T07:16:05.678Z,1850.00
2023-02-28T07:17:05.704Z,1869.00
2023-02-28T07:18:05.682Z,1883.00
2023-02-28T07:19:05.721Z,1892.00
2023-02-28T07:20:05.731Z,1910.00
2023-02-28T07:21:05.768Z,1893.00
2023-02-28T07:22:05.785Z,1898.00
2023-02-28T07:23:05.756Z,1884.00
2023-02-28T07:24:05.745Z,1880.00
2023-02-28T07:25:05.769Z,1900.00
2023-02-28T07:26:05.763Z,1916.00
2023-02-28T07:27:05.762Z,1899.00
2023-02-28T07:28:05.742Z,1929.00
2023-02-28T07:29:05.739Z,1943.00
2023-02-28T07:30:05.805Z,1950.00
2023-02-28T07:31:05.799Z,1933.00
2023-02-28T07:32:05.799Z,1922.00
2023-02-28T07:33:05.743Z,1953.00
2023-02-28T07:34:05.763Z,1965.00
2023-02-28T07:35:05.747Z,1989.00
2023-02-28T07:36:05.758Z,1964.00
2023-02-28T07:37:05.783Z,1913.00
2023-02-28T07:38:05.747Z,1982.00
2023-02-28T07:39:05.754Z,1986.00
2023-02-28T07:40:05.756Z,2032.00
2023-02-28T07:41:05.905Z,2126.00
2023-02-28T07:42:05.826Z,2151.00
2023-02-28T07:43:05.840Z,2048.00
2023-02-28T07:44:05.853Z,1906.00
2023-02-28T07:45:05.918Z,1878.00
2023-02-28T07:46:06.016Z,1753.00
2023-02-28T07:47:06.024Z,1707.00
2023-02-28T07:48:05.994Z,1655.00
2023-02-28T07:49:06.019Z,1580.00
2023-02-28T07:50:06.095Z,1502.00
2023-02-28T07:51:06.161Z,1496.00
2023-02-28T07:52:06.194Z,1448.00
2023-02-28T07:53:06.190Z,1437.00
2023-02-28T07:54:06.256Z,1483.00
2023-02-28T07:55:06.330Z,1410.00
2023-02-28T07:56:06.436Z,1366.00
2023-02-28T07:57:06.459Z,1305.00
2023-02-28T07:58:06.499Z,1199.00
2023-02-28T07:59:06.571Z,1146.00
2023-02-28T08:00:06.530Z,1166.00
2023-02-28T08:01:06.937Z,1131.00
2023-02-28T08:02:06.588Z,1140.00
2023-02-28T08:03:06.531Z,1209.00
2023-02-28T08:04:06.556Z,1333.00
2023-02-28T08:05:06.610Z,1281.00
2023-02-28T08:06:06.544Z,1200.00
2023-02-28T08:07:06.537Z,1109.00
2023-02-28T08:08:06.546Z,1065.00
2023-02-28T08:09:06.541Z,1054.00
2023-02-28T08:10:06.606Z,1052.00
2023-02-28T08:11:06.933Z,1003.00
2023-02-28T08:12:06.541Z,961.00
2023-02-28T08:13:06.537Z,939.00
2023-02-28T08:14:06.536Z,971.00
2023-02-28T08:15:06.571Z,949.00
2023-02-28T08:16:06.595Z,1010.00
2023-02-28T08:17:06.599Z,976.00
2023-02-28T08:18:06.603Z,1020.00
2023-02-28T08:19:06.624Z,967.00
2023-02-28T08:20:06.661Z,938.00
2023-02-28T08:21:06.931Z,1091.00
2023-02-28T08:22:06.698Z,1111.00
2023-02-28T08:23:06.724Z,1141.00
2023-02-28T08:24:06.729Z,1263.00
2023-02-28T08:25:06.724Z,1274.00
2023-02-28T08:26:06.731Z,1247.00
2023-02-28T08:27:06.708Z,1293.00
2023-02-28T08:28:06.720Z,1335.00
2023-02-28T08:29:06.731Z,1389.00
2023-02-28T08:30:06.758Z,1368.00
2023-02-28T08:31:06.973Z,1378.00
2023-02-28T08:32:10.618Z,1474.00
2023-02-28T08:33:07.970Z,1477.00
2023-02-28T08:34:06.870Z,1495.00
2023-02-28T08:35:06.852Z,1547.00
2023-02-28T08:36:07.032Z,1600.00
2023-02-28T08:37:06.847Z,1691.00
2023-02-28T08:38:06.845Z,1680.00
2023-02-28T08:39:06.814Z,1656.00
2023-02-28T08:40:06.845Z,1663.00
2023-02-28T08:41:06.920Z,1696.00
2023-02-28T08:42:08.042Z,1693.00
2023-02-28T08:43:06.867Z,1685.00
2023-02-28T08:44:06.912Z,1668.00
2023-02-28T08:45:06.959Z,1630.00
2023-02-28T08:46:07.575Z,1638.00
2023-02-28T08:47:07.109Z,1624.00
2023-02-28T08:48:07.200Z,1647.00
2023-02-28T08:49:07.701Z,1699.00
2023-02-28T08:50:08.346Z,1685.00
2023-02-28T08:51:08.519Z,1682.00
2023-02-28T08:52:07.591Z,1712.00
2023-02-28T08:53:07.425Z,1735.00
2023-02-28T08:54:07.551Z,1736.00
2023-02-28T08:55:07.469Z,1750.00
2023-02-28T08:56:07.505Z,1728.00
2023-02-28T08:57:07.534Z,1640.00
2023-02-28T08:58:07.669Z,1591.00
2023-02-28T08:59:07.596Z,1502.00
2023-02-28T09:00:08.667Z,1494.00
2023-02-28T09:01:07.696Z,1489.00
2023-02-28T09:02:08.015Z,1576.00
2023-02-28T09:03:07.698Z,1609.00
2023-02-28T09:04:07.750Z,1637.00
2023-02-28T09:05:07.761Z,1671.00
2023-02-28T09:06:07.737Z,1689.00
2023-02-28T09:07:07.769Z,1669.00
2023-02-28T09:08:07.768Z,1620.00
2023-02-28T09:09:07.798Z,1648.00
2023-02-28T09:10:07.829Z,1627.00
2023-02-28T09:11:07.827Z,1539.00
2023-02-28T09:12:07.932Z,1524.00
2023-02-28T09:13:07.840Z,1561.00
2023-02-28T09:14:08.948Z,1432.00
2023-02-28T09:15:07.846Z,1393.00
2023-02-28T09:16:07.866Z,1360.00
2023-02-28T09:17:07.870Z,1468.00
2023-02-28T09:18:07.875Z,1508.00
2023-02-28T09:19:07.869Z,1624.00
2023-02-28T09:20:07.887Z,1636.00
2023-02-28T09:21:07.906Z,1564.00
2023-02-28T09:22:07.889Z,1556.00
2023-02-28T09:23:07.900Z,1584.00
2023-02-28T09:24:07.905Z,1580.00
2023-02-28T09:25:07.934Z,1563.00
2023-02-28T09:26:07.970Z,1630.00
2023-02-28T09:27:08.443Z,1644.00
2023-02-28T09:28:07.938Z,1634.00
2023-02-28T09:29:07.941Z,1615.00
2023-02-28T09:30:07.953Z,1627.00
2023-02-28T09:31:08.040Z,1597.00
2023-02-28T09:32:07.965Z,1579.00
2023-02-28T09:33:07.942Z,1620.00
2023-02-28T09:34:08.040Z,1680.00
2023-02-28T09:35:07.928Z,1751.00
2023-02-28T09:36:08.001Z,1741.00
2023-02-28T09:37:07.996Z,1740.00
2023-02-28T09:38:07.939Z,1763.00
2023-02-28T09:39:07.958Z,1790.00
2023-02-28T09:40:07.993Z,1757.00
2023-02-28T09:41:08.007Z,1772.00
2023-02-28T09:42:08.029Z,1763.00
2023-02-28T09:43:08.491Z,1745.00
2023-02-28T09:44:08.097Z,1766.00
2023-02-28T09:45:08.154Z,1791.00
2023-02-28T09:46:08.277Z,1757.00
2023-02-28T09:47:08.244Z,1718.00
2023-02-28T09:48:08.255Z,1663.00
2023-02-28T09:49:08.281Z,1638.00
2023-02-28T09:50:08.340Z,1597.00
2023-02-28T09:51:08.370Z,1576.00
2023-02-28T09:52:08.458Z,1506.00
2023-02-28T09:53:08.975Z,1490.00
2023-02-28T09:54:08.573Z,1302.00
2023-02-28T09:55:09.209Z,1020.00
2023-02-28T09:56:08.634Z,1023.00
2023-02-28T09:57:08.790Z,1131.00
2023-02-28T09:58:08.752Z,1244.00
2023-02-28T09:59:08.812Z,1341.00
2023-02-28T10:00:08.837Z,1388.00
2023-02-28T10:01:08.951Z,1448.00
2023-02-28T10:02:08.921Z,1485.00
2023-02-28T10:03:08.952Z,1603.00
2023-02-28T10:04:08.978Z,1585.00
2023-02-28T10:05:09.016Z,1612.00
2023-02-28T10:06:09.029Z,1579.00
2023-02-28T10:07:08.994Z,1557.00
2023-02-28T10:08:09.450Z,1555.00
2023-02-28T10:09:08.961Z,1586.00
2023-02-28T10:10:08.966Z,1640.00
2023-02-28T10:11:09.011Z,1771.00
2023-02-28T10:12:08.991Z,1835.00
2023-02-28T10:13:09.017Z,1770.00
2023-02-28T10:14:09.036Z,1787.00
2023-02-28T10:15:09.070Z,1800.00
2023-02-28T10:16:09.193Z,1798.00
2023-02-28T10:17:09.124Z,1800.00
2023-02-28T10:18:10.169Z,1826.00
2023-02-28T10:19:09.250Z,1810.00
2023-02-28T10:20:09.286Z,1784.00
2023-02-28T10:21:09.360Z,1772.00
2023-02-28T10:22:09.441Z,1760.00
2023-02-28T10:23:09.527Z,1807.00
2023-02-28T10:24:09.560Z,1787.00
2023-02-28T10:25:09.623Z,1827.00
2023-02-28T10:26:09.715Z,1806.00
2023-02-28T10:27:09.700Z,1818.00
2023-02-28T10:28:09.801Z,1540.00
2023-02-28T10:29:09.892Z,990.00
2023-02-28T10:30:09.850Z,794.00
2023-02-28T10:31:09.931Z,749.00
2023-02-28T10:32:09.910Z,692.00
2023-02-28T10:33:10.070Z,629.00
2023-02-28T10:34:09.980Z,593.00
2023-02-28T10:35:10.033Z,552.00
2023-02-28T10:36:10.097Z,505.00
2023-02-28T10:37:10.162Z,508.00
2023-02-28T10:38:10.165Z,500.00
2023-02-28T10:39:10.169Z,517.00
2023-02-28T10:40:10.168Z,500.00
2023-02-28T10:41:10.206Z,490.00
2023-02-28T10:42:10.184Z,632.00
2023-02-28T10:43:10.475Z,1049.00
2023-02-28T10:44:10.162Z,1255.00
2023-02-28T10:45:10.214Z,1345.00
2023-02-28T10:46:10.201Z,1345.00
2023-02-28T10:47:10.182Z,1201.00
2023-02-28T10:48:10.472Z,819.00
2023-02-28T10:49:10.213Z,655.00
2023-02-28T10:50:10.161Z,637.00
2023-02-28T10:51:10.190Z,621.00
2023-02-28T10:52:10.987Z,543.00
2023-02-28T10:53:10.207Z,537.00
2023-02-28T10:54:10.659Z,518.00
2023-02-28T10:55:10.208Z,570.00
2023-02-28T10:56:10.175Z,548.00
2023-02-28T10:57:10.235Z,507.00
2023-02-28T10:58:10.500Z,501.00
2023-02-28T10:59:10.245Z,494.00
2023-02-28T11:00:10.317Z,486.00
2023-02-28T11:01:10.260Z,502.00
2023-02-28T11:02:10.375Z,508.00
2023-02-28T11:03:10.281Z,506.00
2023-02-28T11:04:10.317Z,500.00
2023-02-28T11:05:10.318Z,505.00
2023-02-28T11:06:10.308Z,540.00
2023-02-28T11:07:10.353Z,557.00
2023-02-28T11:08:10.391Z,493.00
2023-02-28T11:09:10.412Z,557.00
2023-02-28T11:10:10.437Z,527.00
2023-02-28T11:11:10.451Z,516.00
2023-02-28T11:12:10.493Z,554.00
2023-02-28T11:13:11.012Z,569.00
2023-02-28T11:14:10.537Z,591.00
2023-02-28T11:15:10.565Z,535.00
2023-02-28T11:16:10.612Z,540.00
2023-02-28T11:17:10.596Z,586.00
2023-02-28T11:18:10.641Z,542.00
2023-02-28T11:44:11.569Z,1858.00
2023-02-28T11:45:11.581Z,1707.00
2023-02-28T11:46:11.647Z,1643.00
2023-02-28T11:47:11.676Z,1750.00
2023-02-28T11:48:11.644Z,1861.00
2023-02-28T11:49:11.657Z,2000.00
2023-02-28T11:50:11.613Z,2177.00
2023-02-28T11:51:11.618Z,2298.00
2023-02-28T11:52:11.670Z,2366.00
2023-02-28T11:53:12.000Z,2390.00
2023-02-28T11:54:11.937Z,2464.00
2023-02-28T11:55:11.868Z,2395.00
2023-02-28T11:56:12.537Z,1798.00
2023-02-28T11:57:11.986Z,1451.00
2023-02-28T11:58:12.037Z,1274.00
2023-02-28T11:59:12.063Z,1081.00
2023-02-28T12:00:12.153Z,993.00
2023-02-28T12:01:12.115Z,1009.00
2023-02-28T12:02:12.206Z,919.00
2023-02-28T12:03:12.171Z,934.00
2023-02-28T12:04:12.102Z,1062.00
2023-02-28T12:05:12.132Z,1043.00
2023-02-28T12:06:12.132Z,1031.00
2023-02-28T12:07:12.129Z,942.00
2023-02-28T12:08:12.134Z,827.00
2023-02-28T12:09:12.522Z,706.00
2023-02-28T12:10:12.151Z,772.00
2023-02-28T12:11:12.188Z,752.00
2023-02-28T12:12:12.194Z,686.00
2023-02-28T12:13:12.196Z,664.00
2023-02-28T12:14:12.519Z,589.00
2023-02-28T12:15:12.181Z,562.00
2023-02-28T12:16:12.240Z,518.00
2023-02-28T12:17:12.209Z,547.00
2023-02-28T12:18:12.256Z,545.00
2023-02-28T12:19:12.615Z,519.00
2023-02-28T12:20:12.299Z,499.00
2023-02-28T12:21:12.310Z,519.00
2023-02-28T12:22:12.307Z,554.00
2023-02-28T12:23:12.326Z,582.00
2023-02-28T12:25:12.376Z,508.00
2023-02-28T12:26:12.378Z,531.00
2023-02-28T12:27:12.394Z,616.00
2023-02-28T12:28:12.405Z,798.00
2023-02-28T12:29:12.571Z,982.00
2023-02-28T12:31:12.451Z,1147.00
2023-02-28T12:34:12.512Z,1587.00
2023-02-28T12:35:12.536Z,1686.00
2023-02-28T12:36:12.621Z,1271.00
2023-02-28T12:37:12.542Z,795.00
2023-02-28T12:38:12.595Z,541.00
2023-02-28T12:39:13.016Z,490.00
2023-02-28T12:40:12.734Z,495.00
2023-02-28T12:41:12.719Z,491.00
2023-02-28T12:42:12.746Z,486.00
2023-02-28T12:43:12.789Z,481.00
2023-02-28T12:44:12.865Z,500.00
2023-02-28T12:45:12.928Z,532.00
2023-02-28T12:46:13.061Z,994.00
2023-02-28T12:47:13.049Z,1406.00
2023-02-28T12:48:13.110Z,1536.00
2023-02-28T12:49:13.121Z,1499.00
2023-02-28T12:50:13.283Z,1499.00
2023-02-28T12:51:13.282Z,1469.00
2023-02-28T12:52:13.334Z,1394.00
2023-02-28T12:53:13.419Z,1378.00
2023-02-28T12:54:13.548Z,1490.00
2023-02-28T12:55:13.501Z,1487.00
2023-02-28T12:56:13.555Z,1798.00
2023-02-28T12:57:13.607Z,1654.00
2023-02-28T12:58:13.643Z,1384.00
2023-02-28T12:59:13.712Z,1461.00
2023-02-28T13:00:13.737Z,1618.00
2023-02-28T13:01:13.782Z,1671.00
2023-02-28T13:04:13.967Z,1717.00
2023-02-28T13:05:13.966Z,1758.00
2023-02-28T13:06:14.001Z,1804.00
2023-02-28T13:07:14.039Z,1823.00
2023-02-28T13:08:14.091Z,1817.00
2023-02-28T13:09:14.114Z,1864.00
2023-02-28T13:10:14.165Z,1909.00
2023-02-28T13:11:21.612Z,1873.00
2023-02-28T13:12:15.186Z,1835.00
2023-02-28T13:13:14.162Z,1873.00
2023-02-28T13:14:14.130Z,1851.00
2023-02-28T13:15:14.127Z,1885.00
2023-02-28T13:16:14.129Z,1898.00
2023-02-28T13:17:14.209Z,1926.00
2023-02-28T13:18:14.118Z,1940.00
2023-02-28T13:19:14.123Z,1938.00
2023-02-28T13:20:14.083Z,1948.00
2023-02-28T13:21:14.106Z,1939.00
2023-02-28T13:22:14.083Z,1960.00
2023-02-28T13:23:14.091Z,1949.00
2023-02-28T13:24:14.063Z,1946.00
2023-02-28T13:25:14.053Z,1976.00
2023-02-28T13:26:14.047Z,1996.00
2023-02-28T13:27:14.038Z,1990.00
2023-02-28T13:28:14.032Z,1957.00
2023-02-28T13:29:14.023Z,1957.00
2023-02-28T13:30:14.024Z,1980.00
2023-02-28T13:31:14.076Z,1960.00
2023-02-28T13:32:14.015Z,1917.00
2023-02-28T13:33:14.044Z,1899.00
2023-02-28T13:34:14.123Z,1952.00
2023-02-28T13:35:14.106Z,1959.00
2023-02-28T13:36:14.121Z,1934.00
2023-02-28T13:37:14.143Z,1955.00
2023-02-28T13:38:14.141Z,1975.00
2023-02-28T13:39:14.199Z,1891.00
2023-02-28T13:40:14.169Z,1871.00
2023-02-28T13:41:14.212Z,1889.00
2023-02-28T13:42:14.265Z,1960.00
2023-02-28T13:43:14.297Z,1973.00
2023-02-28T13:44:14.305Z,2000.00
2023-02-28T13:45:14.352Z,2028.00
2023-02-28T13:46:14.464Z,1966.00
2023-02-28T13:47:14.389Z,1995.00
2023-02-28T13:48:14.379Z,1953.00
2023-02-28T13:49:14.441Z,1903.00
2023-02-28T13:50:16.653Z,1913.00
2023-02-28T13:51:14.454Z,1934.00
2023-02-28T13:52:14.456Z,1971.00
2023-02-28T13:53:14.504Z,1961.00
2023-02-28T13:54:14.504Z,1989.00
2023-02-28T13:55:14.526Z,1947.00
2023-02-28T13:56:14.521Z,1975.00
2023-02-28T13:57:14.545Z,1881.00
2023-02-28T13:58:14.558Z,1825.00
2023-02-28T13:59:14.609Z,1824.00
2023-02-28T14:00:14.626Z,1844.00
2023-02-28T14:01:14.675Z,1909.00
2023-02-28T14:02:14.654Z,1952.00
2023-02-28T14:03:14.763Z,1957.00
2023-02-28T14:04:14.739Z,1876.00
2023-02-28T14:06:14.758Z,1986.00
2023-02-28T14:07:14.830Z,2018.00
2023-02-28T14:08:14.848Z,1984.00
2023-02-28T14:09:14.881Z,1980.00
2023-02-28T14:10:14.879Z,1965.00
2023-02-28T14:11:14.890Z,1991.00
2023-02-28T14:12:14.945Z,1976.00
2023-02-28T14:13:15.015Z,2005.00
2023-02-28T14:14:14.966Z,2021.00
2023-02-28T14:15:15.000Z,2027.00
2023-02-28T14:16:15.002Z,2030.00
2023-02-28T14:17:14.991Z,2051.00
2023-02-28T14:18:15.046Z,2067.00
2023-02-28T14:19:15.057Z,1990.00
2023-02-28T14:20:15.094Z,1940.00
2023-02-28T14:21:15.113Z,1870.00
2023-02-28T14:22:15.125Z,1894.00
2023-02-28T14:23:15.195Z,1917.00
2023-02-28T14:24:15.183Z,1866.00
2023-02-28T14:25:15.152Z,1843.00
2023-02-28T14:26:15.208Z,1894.00
2023-02-28T14:27:15.226Z,1907.00
2023-02-28T14:28:15.250Z,1909.00
2023-02-28T14:29:15.369Z,1898.00
2023-02-28T14:30:15.322Z,1928.00
2023-02-28T14:31:15.394Z,1965.00
2023-02-28T14:32:15.419Z,1915.00
2023-02-28T14:33:15.398Z,1952.00
2023-02-28T14:34:15.539Z,1813.00
2023-02-28T14:35:15.419Z,1886.00
2023-02-28T14:36:15.466Z,1888.00
2023-02-28T14:37:15.480Z,1918.00
2023-02-28T14:38:15.542Z,1933.00
2023-02-28T14:39:15.600Z,1899.00
2023-02-28T14:40:15.580Z,1941.00
2023-02-28T14:41:15.609Z,1928.00
2023-02-28T14:42:15.617Z,1904.00
2023-02-28T14:43:15.660Z,1915.00
2023-02-28T14:44:15.674Z,1933.00
2023-02-28T14:45:15.739Z,1923.00
2023-02-28T14:46:15.771Z,1918.00
2023-02-28T14:47:15.750Z,1951.00
2023-02-28T14:48:15.748Z,1938.00
2023-02-28T14:49:15.809Z,1900.00
2023-02-28T14:50:15.849Z,1880.00
2023-02-28T14:51:15.880Z,1811.00
2023-02-28T14:52:15.868Z,1848.00
2023-02-28T14:53:15.891Z,1856.00
2023-02-28T14:54:15.944Z,1885.00
2023-02-28T14:55:15.954Z,1924.00
2023-02-28T14:56:15.943Z,1874.00
2023-02-28T14:57:15.977Z,1836.00
2023-02-28T14:58:15.987Z,1863.00
2023-02-28T14:59:16.042Z,1780.00
2023-02-28T15:00:16.087Z,1759.00
2023-02-28T15:01:16.043Z,1803.00
2023-02-28T15:02:16.150Z,1851.00
2023-02-28T15:03:16.116Z,1824.00
2023-02-28T15:04:16.140Z,1751.00
2023-02-28T15:05:16.184Z,1757.00
2023-02-28T15:06:16.198Z,1783.00
2023-02-28T15:07:16.223Z,1796.00
2023-02-28T15:08:16.248Z,1757.00
2023-02-28T15:09:16.577Z,1801.00
2023-02-28T15:10:16.324Z,1834.00
2023-02-28T15:11:16.318Z,1852.00
2023-02-28T15:12:16.370Z,1867.00
2023-02-28T15:13:16.457Z,1882.00
2023-02-28T15:14:16.421Z,1857.00
2023-02-28T15:15:16.483Z,1801.00
2023-02-28T15:16:16.541Z,1765.00
2023-02-28T15:17:16.572Z,1702.00
2023-02-28T15:18:16.536Z,1716.00
2023-02-28T15:19:16.580Z,1716.00
2023-02-28T15:20:16.693Z,1564.00
2023-02-28T15:21:18.522Z,1550.00
2023-02-28T15:22:16.678Z,1600.00
2023-02-28T15:23:16.714Z,1634.00
2023-02-28T15:24:16.774Z,1612.00
2023-02-28T15:25:16.784Z,1617.00
2023-02-28T15:26:16.868Z,1649.00
2023-02-28T15:27:16.852Z,1623.00
2023-02-28T15:28:16.887Z,1654.00
2023-02-28T15:29:16.943Z,1673.00
2023-02-28T15:30:16.932Z,1685.00
2023-02-28T15:31:17.046Z,1595.00
2023-02-28T15:32:17.099Z,1471.00
2023-02-28T15:33:17.024Z,1470.00
2023-02-28T15:34:17.076Z,1407.00
2023-02-28T15:35:17.089Z,1435.00
2023-02-28T15:36:17.190Z,1383.00
2023-02-28T15:37:18.245Z,1447.00
2023-02-28T15:38:17.266Z,1483.00
2023-02-28T15:39:17.228Z,1389.00
2023-02-28T15:40:17.295Z,1286.00
2023-02-28T15:41:17.345Z,1302.00
2023-02-28T15:42:17.384Z,1278.00
2023-02-28T15:43:17.387Z,1295.00
2023-02-28T15:44:17.469Z,1238.00
2023-02-28T15:45:17.517Z,1176.00
2023-02-28T15:46:17.558Z,1215.00
2023-02-28T15:47:17.607Z,1202.00
2023-02-28T15:48:17.621Z,1232.00
2023-02-28T15:49:17.706Z,1293.00
2023-02-28T15:50:17.742Z,1262.00
2023-02-28T15:51:17.769Z,1213.00
2023-02-28T15:52:17.810Z,1257.00
2023-02-28T15:53:17.880Z,1264.00
2023-02-28T15:54:17.932Z,1092.00
2023-02-28T15:55:17.972Z,1180.00